sensor_id;sensor_type;location;lat;lon;timestamp;temperature;humidity
16825;DHT22;8529;48.108;-1.706;2023-03-01T00:01:44;2.80;99.90
16825;DHT22;8529;48.108;-1.706;2023-03-01T00:04:16;2.80;99.90
16825;DHT22;8529;48.108;-1.706;2023-03-01T00:06:48;2.80;99.90
16825;DHT22;8529;48.108;-1.706;2023-03-01T00:09:16;2.80;99.90
16825;DHT22;8529;48.108;-1.706;2023-03-01T00:11:49;2.80;99.90
16825;DHT22;8529;48.108;-1.706;2023-03-01T00:14:21;2.90;99.90
16825;DHT22;8529;48.108;-1.706;2023-03-01T00:16:54;2.90;99.90
16825;DHT22;8529;48.108;-1.706;2023-03-01T00:19:24;2.90;99.90
16825;DHT22;8529;48.108;-1.706;2023-03-01T00:21:51;2.90;99.90
16825;DHT22;8529;48.108;-1.706;2023-03-01T00:24:22;2.70;99.90
16825;DHT22;8529;48.108;-1.706;2023-03-01T00:26:53;2.70;99.90
16825;DHT22;8529;48.108;-1.706;2023-03-01T00:29:24;2.60;99.90
16825;DHT22;8529;48.108;-1.706;2023-03-01T00:31:53;2.70;99.90
16825;DHT22;8529;48.108;-1.706;2023-03-01T00:34:22;2.70;99.90
16825;DHT22;8529;48.108;-1.706;2023-03-01T00:36:49;2.70;99.90
16825;DHT22;8529;48.108;-1.706;2023-03-01T00:39:16;2.60;99.90
16825;DHT22;8529;48.108;-1.706;2023-03-01T00:41:43;2.60;99.90
16825;DHT22;8529;48.108;-1.706;2023-03-01T00:44:10;2.60;99.90
16825;DHT22;8529;48.108;-1.706;2023-03-01T00:46:39;2.60;99.90
16825;DHT22;8529;48.108;-1.706;2023-03-01T00:49:05;2.60;99.90
16825;DHT22;8529;48.108;-1.706;2023-03-01T00:51:32;2.50;99.90
16825;DHT22;8529;48.108;-1.706;2023-03-01T00:54:00;2.50;99.90
16825;DHT22;8529;48.108;-1.706;2023-03-01T00:56:28;2.40;99.90
16825;DHT22;8529;48.108;-1.706;2023-03-01T00:58:55;2.40;99.90
16825;DHT22;8529;48.108;-1.706;2023-03-01T01:01:24;2.30;99.90
16825;DHT22;8529;48.108;-1.706;2023-03-01T01:03:55;2.30;99.90
16825;DHT22;8529;48.108;-1.706;2023-03-01T01:06:25;2.30;99.90
16825;DHT22;8529;48.108;-1.706;2023-03-01T01:08:54;2.20;99.90
16825;DHT22;8529;48.108;-1.706;2023-03-01T01:11:22;2.20;99.90
16825;DHT22;8529;48.108;-1.706;2023-03-01T01:13:50;2.20;99.90
16825;DHT22;8529;48.108;-1.706;2023-03-01T01:16:18;2.20;99.90
16825;DHT22;8529;48.108;-1.706;2023-03-01T01:18:45;2.20;99.90
16825;DHT22;8529;48.108;-1.706;2023-03-01T01:21:15;2.10;99.90
16825;DHT22;8529;48.108;-1.706;2023-03-01T01:23:43;2.20;99.90
16825;DHT22;8529;48.108;-1.706;2023-03-01T01:26:13;2.20;99.90
16825;DHT22;8529;48.108;-1.706;2023-03-01T01:28:40;2.20;99.90
16825;DHT22;8529;48.108;-1.706;2023-03-01T01:31:07;2.10;99.90
16825;DHT22;8529;48.108;-1.706;2023-03-01T01:33:34;2.20;99.90
16825;DHT22;8529;48.108;-1.706;2023-03-01T01:36:03;2.20;99.90
16825;DHT22;8529;48.108;-1.706;2023-03-01T01:38:31;2.10;99.90
16825;DHT22;8529;48.108;-1.706;2023-03-01T01:40:59;2.10;99.90
16825;DHT22;8529;48.108;-1.706;2023-03-01T01:43:29;2.00;99.90
16825;DHT22;8529;48.108;-1.706;2023-03-01T01:45:57;2.10;99.90
16825;DHT22;8529;48.108;-1.706;2023-03-01T01:48:34;2.00;99.90
16825;DHT22;8529;48.108;-1.706;2023-03-01T01:51:09;2.00;99.90
16825;DHT22;8529;48.108;-1.706;2023-03-01T01:53:39;2.00;99.90
16825;DHT22;8529;48.108;-1.706;2023-03-01T01:56:08;2.00;99.90
16825;DHT22;8529;48.108;-1.706;2023-03-01T01:58:36;2.00;99.90
16825;DHT22;8529;48.108;-1.706;2023-03-01T02:01:04;2.00;99.90
16825;DHT22;8529;48.108;-1.706;2023-03-01T02:03:33;2.00;99.90
16825;DHT22;8529;48.108;-1.706;2023-03-01T02:06:06;2.00;99.90
16825;DHT22;8529;48.108;-1.706;2023-03-01T02:08:36;2.00;99.90
16825;DHT22;8529;48.108;-1.706;2023-03-01T02:11:06;2.00;99.90
16825;DHT22;8529;48.108;-1.706;2023-03-01T02:13:34;2.00;99.90
16825;DHT22;8529;48.108;-1.706;2023-03-01T02:16:03;2.10;99.90
16825;DHT22;8529;48.108;-1.706;2023-03-01T02:18:31;2.00;99.90
16825;DHT22;8529;48.108;-1.706;2023-03-01T02:21:09;2.00;99.90
16825;DHT22;8529;48.108;-1.706;2023-03-01T02:23:38;2.10;99.90
16825;DHT22;8529;48.108;-1.706;2023-03-01T02:26:10;2.00;99.90
16825;DHT22;8529;48.108;-1.706;2023-03-01T02:28:41;2.00;99.90
16825;DHT22;8529;48.108;-1.706;2023-03-01T02:31:11;2.00;99.90
16825;DHT22;8529;48.108;-1.706;2023-03-01T02:33:58;2.00;99.90
16825;DHT22;8529;48.108;-1.706;2023-03-01T02:36:29;2.00;99.90
16825;DHT22;8529;48.108;-1.706;2023-03-01T02:38:58;1.90;99.90
16825;DHT22;8529;48.108;-1.706;2023-03-01T02:41:29;1.90;99.90
16825;DHT22;8529;48.108;-1.706;2023-03-01T02:43:59;1.90;99.90
16825;DHT22;8529;48.108;-1.706;2023-03-01T02:46:26;1.90;99.90
16825;DHT22;8529;48.108;-1.706;2023-03-01T02:48:55;1.80;99.90
16825;DHT22;8529;48.108;-1.706;2023-03-01T02:51:42;1.80;99.90
16825;DHT22;8529;48.108;-1.706;2023-03-01T02:54:15;1.70;99.90
16825;DHT22;8529;48.108;-1.706;2023-03-01T02:56:45;1.70;99.90
16825;DHT22;8529;48.108;-1.706;2023-03-01T02:59:16;1.90;99.90
16825;DHT22;8529;48.108;-1.706;2023-03-01T03:01:44;1.80;99.90
16825;DHT22;8529;48.108;-1.706;2023-03-01T03:04:14;1.80;99.90
16825;DHT22;8529;48.108;-1.706;2023-03-01T03:06:43;1.70;99.90
16825;DHT22;8529;48.108;-1.706;2023-03-01T03:09:11;1.70;99.90
16825;DHT22;8529;48.108;-1.706;2023-03-01T03:11:38;1.60;99.90
16825;DHT22;8529;48.108;-1.706;2023-03-01T03:14:06;1.60;99.90
16825;DHT22;8529;48.108;-1.706;2023-03-01T03:16:40;1.60;99.90
16825;DHT22;8529;48.108;-1.706;2023-03-01T03:19:07;1.70;99.90
16825;DHT22;8529;48.108;-1.706;2023-03-01T03:21:34;1.60;99.90
16825;DHT22;8529;48.108;-1.706;2023-03-01T03:24:01;1.60;99.90
16825;DHT22;8529;48.108;-1.706;2023-03-01T03:26:29;1.60;99.90
16825;DHT22;8529;48.108;-1.706;2023-03-01T03:28:56;1.60;99.90
16825;DHT22;8529;48.108;-1.706;2023-03-01T03:31:24;1.60;99.90
16825;DHT22;8529;48.108;-1.706;2023-03-01T03:33:52;1.60;99.90
16825;DHT22;8529;48.108;-1.706;2023-03-01T03:36:21;1.60;99.90
16825;DHT22;8529;48.108;-1.706;2023-03-01T03:38:49;1.60;99.90
16825;DHT22;8529;48.108;-1.706;2023-03-01T03:41:16;1.60;99.90
16825;DHT22;8529;48.108;-1.706;2023-03-01T03:43:43;1.60;99.90
16825;DHT22;8529;48.108;-1.706;2023-03-01T03:46:11;1.50;99.90
16825;DHT22;8529;48.108;-1.706;2023-03-01T03:48:39;1.50;99.90
16825;DHT22;8529;48.108;-1.706;2023-03-01T03:51:10;1.50;99.90
16825;DHT22;8529;48.108;-1.706;2023-03-01T03:53:37;1.50;99.90
16825;DHT22;8529;48.108;-1.706;2023-03-01T03:56:05;1.50;99.90
16825;DHT22;8529;48.108;-1.706;2023-03-01T03:58:32;1.50;99.90
16825;DHT22;8529;48.108;-1.706;2023-03-01T04:00:59;1.50;99.90
16825;DHT22;8529;48.108;-1.706;2023-03-01T04:03:27;1.60;99.90
16825;DHT22;8529;48.108;-1.706;2023-03-01T04:05:57;1.50;99.90
16825;DHT22;8529;48.108;-1.706;2023-03-01T04:08:26;1.50;99.90
16825;DHT22;8529;48.108;-1.706;2023-03-01T04:10:57;1.50;99.90
16825;DHT22;8529;48.108;-1.706;2023-03-01T04:13:25;1.50;99.90
16825;DHT22;8529;48.108;-1.706;2023-03-01T04:15:53;1.40;99.90
16825;DHT22;8529;48.108;-1.706;2023-03-01T04:18:22;1.40;99.90
16825;DHT22;8529;48.108;-1.706;2023-03-01T04:20:49;1.40;99.90
16825;DHT22;8529;48.108;-1.706;2023-03-01T04:23:20;1.50;99.90
16825;DHT22;8529;48.108;-1.706;2023-03-01T04:25:50;1.40;99.90
16825;DHT22;8529;48.108;-1.706;2023-03-01T04:28:20;1.30;99.90
16825;DHT22;8529;48.108;-1.706;2023-03-01T04:30:47;1.30;99.90
16825;DHT22;8529;48.108;-1.706;2023-03-01T04:33:14;1.30;99.90
16825;DHT22;8529;48.108;-1.706;2023-03-01T04:35:40;1.40;99.90
16825;DHT22;8529;48.108;-1.706;2023-03-01T04:38:08;1.30;99.90
16825;DHT22;8529;48.108;-1.706;2023-03-01T04:40:36;1.30;99.90
16825;DHT22;8529;48.108;-1.706;2023-03-01T04:43:05;1.20;99.90
16825;DHT22;8529;48.108;-1.706;2023-03-01T04:45:32;1.20;99.90
16825;DHT22;8529;48.108;-1.706;2023-03-01T04:48:01;1.20;99.90
16825;DHT22;8529;48.108;-1.706;2023-03-01T04:50:28;1.30;99.90
16825;DHT22;8529;48.108;-1.706;2023-03-01T04:52:55;1.30;99.90
16825;DHT22;8529;48.108;-1.706;2023-03-01T04:55:24;1.20;99.90
16825;DHT22;8529;48.108;-1.706;2023-03-01T04:57:52;1.20;99.90
16825;DHT22;8529;48.108;-1.706;2023-03-01T05:00:21;1.10;99.90
16825;DHT22;8529;48.108;-1.706;2023-03-01T05:02:50;1.10;99.90
16825;DHT22;8529;48.108;-1.706;2023-03-01T05:05:21;1.10;99.90
16825;DHT22;8529;48.108;-1.706;2023-03-01T05:07:51;1.10;99.90
16825;DHT22;8529;48.108;-1.706;2023-03-01T05:10:18;1.20;99.90
16825;DHT22;8529;48.108;-1.706;2023-03-01T05:12:45;1.20;99.90
16825;DHT22;8529;48.108;-1.706;2023-03-01T05:15:13;1.20;99.90
16825;DHT22;8529;48.108;-1.706;2023-03-01T05:17:41;1.20;99.90
16825;DHT22;8529;48.108;-1.706;2023-03-01T05:20:09;1.20;99.90
16825;DHT22;8529;48.108;-1.706;2023-03-01T05:22:37;1.20;99.90
16825;DHT22;8529;48.108;-1.706;2023-03-01T05:25:04;1.30;99.90
16825;DHT22;8529;48.108;-1.706;2023-03-01T05:27:32;1.30;99.90
16825;DHT22;8529;48.108;-1.706;2023-03-01T05:29:59;1.30;99.90
16825;DHT22;8529;48.108;-1.706;2023-03-01T05:32:41;1.30;99.90
16825;DHT22;8529;48.108;-1.706;2023-03-01T05:35:09;1.20;99.90
16825;DHT22;8529;48.108;-1.706;2023-03-01T05:37:39;1.20;99.90
16825;DHT22;8529;48.108;-1.706;2023-03-01T05:40:08;1.20;99.90
16825;DHT22;8529;48.108;-1.706;2023-03-01T05:42:42;1.30;99.90
16825;DHT22;8529;48.108;-1.706;2023-03-01T05:45:10;1.30;99.90
16825;DHT22;8529;48.108;-1.706;2023-03-01T05:47:38;1.20;99.90
16825;DHT22;8529;48.108;-1.706;2023-03-01T05:50:11;1.30;99.90
16825;DHT22;8529;48.108;-1.706;2023-03-01T05:52:38;1.20;99.90
16825;DHT22;8529;48.108;-1.706;2023-03-01T05:55:06;1.20;99.90
16825;DHT22;8529;48.108;-1.706;2023-03-01T05:57:33;1.20;99.90
16825;DHT22;8529;48.108;-1.706;2023-03-01T06:00:00;1.20;99.90
16825;DHT22;8529;48.108;-1.706;2023-03-01T06:02:27;1.20;99.90
16825;DHT22;8529;48.108;-1.706;2023-03-01T06:04:54;1.30;99.90
16825;DHT22;8529;48.108;-1.706;2023-03-01T06:07:23;1.20;99.90
16825;DHT22;8529;48.108;-1.706;2023-03-01T06:09:50;1.20;99.90
16825;DHT22;8529;48.108;-1.706;2023-03-01T06:12:17;1.20;99.90
16825;DHT22;8529;48.108;-1.706;2023-03-01T06:14:45;1.20;99.90
16825;DHT22;8529;48.108;-1.706;2023-03-01T06:17:13;1.20;99.90
16825;DHT22;8529;48.108;-1.706;2023-03-01T06:19:40;1.20;99.90
16825;DHT22;8529;48.108;-1.706;2023-03-01T06:22:07;1.30;99.90
16825;DHT22;8529;48.108;-1.706;2023-03-01T06:24:35;1.20;99.90
16825;DHT22;8529;48.108;-1.706;2023-03-01T06:27:02;1.20;99.90
16825;DHT22;8529;48.108;-1.706;2023-03-01T06:29:29;1.30;99.90
16825;DHT22;8529;48.108;-1.706;2023-03-01T06:31:56;1.20;99.90
16825;DHT22;8529;48.108;-1.706;2023-03-01T06:34:23;1.20;99.90
16825;DHT22;8529;48.108;-1.706;2023-03-01T06:36:50;1.20;99.90
16825;DHT22;8529;48.108;-1.706;2023-03-01T06:39:17;1.20;99.90
16825;DHT22;8529;48.108;-1.706;2023-03-01T06:41:45;1.20;99.90
16825;DHT22;8529;48.108;-1.706;2023-03-01T06:44:12;1.20;99.90
16825;DHT22;8529;48.108;-1.706;2023-03-01T06:46:39;1.10;99.90
16825;DHT22;8529;48.108;-1.706;2023-03-01T06:49:06;1.10;99.90
16825;DHT22;8529;48.108;-1.706;2023-03-01T06:51:35;1.10;99.90
16825;DHT22;8529;48.108;-1.706;2023-03-01T06:54:02;1.10;99.90
16825;DHT22;8529;48.108;-1.706;2023-03-01T06:56:29;1.10;99.90
16825;DHT22;8529;48.108;-1.706;2023-03-01T06:58:57;1.10;99.90
16825;DHT22;8529;48.108;-1.706;2023-03-01T07:01:25;1.10;99.90
16825;DHT22;8529;48.108;-1.706;2023-03-01T07:03:52;1.10;99.90
16825;DHT22;8529;48.108;-1.706;2023-03-01T07:06:18;1.10;99.90
16825;DHT22;8529;48.108;-1.706;2023-03-01T07:08:45;1.10;99.90
16825;DHT22;8529;48.108;-1.706;2023-03-01T07:11:12;1.10;99.90
16825;DHT22;8529;48.108;-1.706;2023-03-01T07:13:39;1.10;99.90
16825;DHT22;8529;48.108;-1.706;2023-03-01T07:16:08;1.10;99.90
16825;DHT22;8529;48.108;-1.706;2023-03-01T07:18:35;1.10;99.90
16825;DHT22;8529;48.108;-1.706;2023-03-01T07:21:06;1.10;99.90
16825;DHT22;8529;48.108;-1.706;2023-03-01T07:23:34;1.10;99.90
16825;DHT22;8529;48.108;-1.706;2023-03-01T07:26:00;1.10;99.90
16825;DHT22;8529;48.108;-1.706;2023-03-01T07:28:27;1.10;99.90
16825;DHT22;8529;48.108;-1.706;2023-03-01T07:30:54;1.10;99.90
16825;DHT22;8529;48.108;-1.706;2023-03-01T07:33:23;1.10;99.90
16825;DHT22;8529;48.108;-1.706;2023-03-01T07:35:56;1.10;99.90
16825;DHT22;8529;48.108;-1.706;2023-03-01T07:38:23;1.30;99.90
16825;DHT22;8529;48.108;-1.706;2023-03-01T07:40:50;1.40;99.90
16825;DHT22;8529;48.108;-1.706;2023-03-01T07:43:16;1.40;99.90
16825;DHT22;8529;48.108;-1.706;2023-03-01T07:45:44;1.40;99.90
16825;DHT22;8529;48.108;-1.706;2023-03-01T07:48:10;1.40;99.90
16825;DHT22;8529;48.108;-1.706;2023-03-01T07:50:39;1.40;99.90
16825;DHT22;8529;48.108;-1.706;2023-03-01T07:53:05;1.50;99.90
16825;DHT22;8529;48.108;-1.706;2023-03-01T07:55:32;1.60;99.90
16825;DHT22;8529;48.108;-1.706;2023-03-01T07:57:59;1.60;99.90
16825;DHT22;8529;48.108;-1.706;2023-03-01T08:00:26;1.60;99.90
16825;DHT22;8529;48.108;-1.706;2023-03-01T08:02:53;1.60;99.90
16825;DHT22;8529;48.108;-1.706;2023-03-01T08:05:20;1.60;99.90
16825;DHT22;8529;48.108;-1.706;2023-03-01T08:07:49;1.70;99.90
16825;DHT22;8529;48.108;-1.706;2023-03-01T08:10:16;1.70;99.90
16825;DHT22;8529;48.108;-1.706;2023-03-01T08:12:43;1.80;99.90
16825;DHT22;8529;48.108;-1.706;2023-03-01T08:15:11;1.90;99.90
16825;DHT22;8529;48.108;-1.706;2023-03-01T08:17:38;2.00;99.90
16825;DHT22;8529;48.108;-1.706;2023-03-01T08:20:05;2.00;99.90
16825;DHT22;8529;48.108;-1.706;2023-03-01T08:22:33;2.10;99.90
16825;DHT22;8529;48.108;-1.706;2023-03-01T08:25:01;2.00;99.90
16825;DHT22;8529;48.108;-1.706;2023-03-01T08:27:28;2.10;99.90
16825;DHT22;8529;48.108;-1.706;2023-03-01T08:29:55;2.10;99.90
16825;DHT22;8529;48.108;-1.706;2023-03-01T08:32:21;2.20;99.90
16825;DHT22;8529;48.108;-1.706;2023-03-01T08:34:48;2.20;99.90
16825;DHT22;8529;48.108;-1.706;2023-03-01T08:37:15;2.30;99.90
16825;DHT22;8529;48.108;-1.706;2023-03-01T08:39:42;2.30;99.90
16825;DHT22;8529;48.108;-1.706;2023-03-01T08:42:10;2.40;99.90
16825;DHT22;8529;48.108;-1.706;2023-03-01T08:44:37;2.40;99.90
16825;DHT22;8529;48.108;-1.706;2023-03-01T08:47:04;2.40;99.90
16825;DHT22;8529;48.108;-1.706;2023-03-01T08:49:31;2.40;99.90
16825;DHT22;8529;48.108;-1.706;2023-03-01T08:51:58;2.40;99.90
16825;DHT22;8529;48.108;-1.706;2023-03-01T08:54:26;2.50;99.90
16825;DHT22;8529;48.108;-1.706;2023-03-01T08:56:54;2.60;99.90
16825;DHT22;8529;48.108;-1.706;2023-03-01T08:59:22;2.60;99.90
16825;DHT22;8529;48.108;-1.706;2023-03-01T09:01:49;2.70;99.90
16825;DHT22;8529;48.108;-1.706;2023-03-01T09:04:16;2.80;99.90
16825;DHT22;8529;48.108;-1.706;2023-03-01T09:06:43;2.80;99.90
16825;DHT22;8529;48.108;-1.706;2023-03-01T09:09:13;2.90;99.90
16825;DHT22;8529;48.108;-1.706;2023-03-01T09:11:41;3.00;99.90
16825;DHT22;8529;48.108;-1.706;2023-03-01T09:14:08;3.00;99.90
16825;DHT22;8529;48.108;-1.706;2023-03-01T09:16:36;3.00;99.90
16825;DHT22;8529;48.108;-1.706;2023-03-01T09:19:04;3.10;99.90
16825;DHT22;8529;48.108;-1.706;2023-03-01T09:21:31;3.20;99.90
16825;DHT22;8529;48.108;-1.706;2023-03-01T09:23:58;3.20;99.90
16825;DHT22;8529;48.108;-1.706;2023-03-01T09:26:25;3.30;99.90
16825;DHT22;8529;48.108;-1.706;2023-03-01T09:28:55;3.30;99.90
16825;DHT22;8529;48.108;-1.706;2023-03-01T09:31:24;3.40;99.90
16825;DHT22;8529;48.108;-1.706;2023-03-01T09:33:53;3.40;99.90
16825;DHT22;8529;48.108;-1.706;2023-03-01T09:36:21;3.50;99.90
16825;DHT22;8529;48.108;-1.706;2023-03-01T09:38:49;3.50;99.90
16825;DHT22;8529;48.108;-1.706;2023-03-01T09:41:40;3.60;99.90
16825;DHT22;8529;48.108;-1.706;2023-03-01T09:44:18;3.60;99.90
16825;DHT22;8529;48.108;-1.706;2023-03-01T09:46:45;3.70;99.90
16825;DHT22;8529;48.108;-1.706;2023-03-01T09:49:17;3.70;99.90
16825;DHT22;8529;48.108;-1.706;2023-03-01T09:51:54;3.80;99.90
16825;DHT22;8529;48.108;-1.706;2023-03-01T09:54:22;3.90;99.90
16825;DHT22;8529;48.108;-1.706;2023-03-01T09:56:59;4.00;99.90
16825;DHT22;8529;48.108;-1.706;2023-03-01T09:59:31;4.00;99.90
16825;DHT22;8529;48.108;-1.706;2023-03-01T10:02:10;4.10;99.90
16825;DHT22;8529;48.108;-1.706;2023-03-01T10:04:45;4.20;99.90
16825;DHT22;8529;48.108;-1.706;2023-03-01T10:07:21;4.20;99.90
16825;DHT22;8529;48.108;-1.706;2023-03-01T10:09:50;4.30;99.90
16825;DHT22;8529;48.108;-1.706;2023-03-01T10:12:18;4.30;99.90
16825;DHT22;8529;48.108;-1.706;2023-03-01T10:14:53;4.30;99.90
16825;DHT22;8529;48.108;-1.706;2023-03-01T10:17:27;4.40;99.90
16825;DHT22;8529;48.108;-1.706;2023-03-01T10:22:48;4.50;99.90
16825;DHT22;8529;48.108;-1.706;2023-03-01T10:25:35;4.60;99.90
16825;DHT22;8529;48.108;-1.706;2023-03-01T10:28:10;4.70;99.90
16825;DHT22;8529;48.108;-1.706;2023-03-01T10:30:42;4.80;99.90
16825;DHT22;8529;48.108;-1.706;2023-03-01T10:33:15;4.90;99.90
16825;DHT22;8529;48.108;-1.706;2023-03-01T10:35:45;4.90;99.90
16825;DHT22;8529;48.108;-1.706;2023-03-01T10:38:14;4.90;99.90
16825;DHT22;8529;48.108;-1.706;2023-03-01T10:40:51;4.90;99.90
16825;DHT22;8529;48.108;-1.706;2023-03-01T10:43:19;4.90;99.90
16825;DHT22;8529;48.108;-1.706;2023-03-01T10:45:46;4.90;99.90
16825;DHT22;8529;48.108;-1.706;2023-03-01T10:48:15;5.00;99.90
16825;DHT22;8529;48.108;-1.706;2023-03-01T10:50:45;5.00;99.90
16825;DHT22;8529;48.108;-1.706;2023-03-01T10:53:32;5.10;99.90
16825;DHT22;8529;48.108;-1.706;2023-03-01T10:56:02;5.00;99.90
16825;DHT22;8529;48.108;-1.706;2023-03-01T10:58:30;5.00;99.90
16825;DHT22;8529;48.108;-1.706;2023-03-01T11:00:59;5.00;99.90
16825;DHT22;8529;48.108;-1.706;2023-03-01T11:03:28;5.10;99.90
16825;DHT22;8529;48.108;-1.706;2023-03-01T11:06:03;5.20;99.90
16825;DHT22;8529;48.108;-1.706;2023-03-01T11:08:36;5.30;99.90
16825;DHT22;8529;48.108;-1.706;2023-03-01T11:11:23;5.30;99.90
16825;DHT22;8529;48.108;-1.706;2023-03-01T11:13:54;5.40;99.90
16825;DHT22;8529;48.108;-1.706;2023-03-01T11:16:33;5.40;99.90
16825;DHT22;8529;48.108;-1.706;2023-03-01T11:19:14;5.50;99.90
16825;DHT22;8529;48.108;-1.706;2023-03-01T11:21:59;5.50;99.90
16825;DHT22;8529;48.108;-1.706;2023-03-01T11:24:32;5.60;99.90
16825;DHT22;8529;48.108;-1.706;2023-03-01T11:27:03;5.60;99.90
16825;DHT22;8529;48.108;-1.706;2023-03-01T11:29:35;5.70;99.90
16825;DHT22;8529;48.108;-1.706;2023-03-01T11:32:07;5.60;99.90
16825;DHT22;8529;48.108;-1.706;2023-03-01T11:34:40;5.60;99.90
16825;DHT22;8529;48.108;-1.706;2023-03-01T11:37:24;5.60;99.90
16825;DHT22;8529;48.108;-1.706;2023-03-01T11:39:58;5.70;99.90
16825;DHT22;8529;48.108;-1.706;2023-03-01T11:42:37;5.70;99.90
16825;DHT22;8529;48.108;-1.706;2023-03-01T11:45:08;5.70;99.90
16825;DHT22;8529;48.108;-1.706;2023-03-01T11:47:52;5.70;99.90
16825;DHT22;8529;48.108;-1.706;2023-03-01T11:50:28;5.80;99.90
16825;DHT22;8529;48.108;-1.706;2023-03-01T11:53:09;5.80;99.90
16825;DHT22;8529;48.108;-1.706;2023-03-01T11:56:02;5.80;99.90
16825;DHT22;8529;48.108;-1.706;2023-03-01T11:58:44;5.90;99.90
16825;DHT22;8529;48.108;-1.706;2023-03-01T12:01:27;5.90;99.90
16825;DHT22;8529;48.108;-1.706;2023-03-01T12:06:59;6.10;99.90
16825;DHT22;8529;48.108;-1.706;2023-03-01T12:09:58;6.20;99.90
16825;DHT22;8529;48.108;-1.706;2023-03-01T12:12:32;6.20;99.90
16825;DHT22;8529;48.108;-1.706;2023-03-01T12:18:27;6.20;99.90
16825;DHT22;8529;48.108;-1.706;2023-03-01T12:21:06;6.30;99.90
16825;DHT22;8529;48.108;-1.706;2023-03-01T12:24:09;6.40;99.90
16825;DHT22;8529;48.108;-1.706;2023-03-01T12:26:44;6.40;99.90
16825;DHT22;8529;48.108;-1.706;2023-03-01T12:29:25;6.50;99.90
16825;DHT22;8529;48.108;-1.706;2023-03-01T12:32:25;6.50;99.90
16825;DHT22;8529;48.108;-1.706;2023-03-01T12:35:22;6.50;99.90
16825;DHT22;8529;48.108;-1.706;2023-03-01T12:37:54;6.60;99.90
16825;DHT22;8529;48.108;-1.706;2023-03-01T12:40:47;6.60;99.90
16825;DHT22;8529;48.108;-1.706;2023-03-01T12:43:26;6.70;99.90
16825;DHT22;8529;48.108;-1.706;2023-03-01T12:46:44;6.70;99.90
16825;DHT22;8529;48.108;-1.706;2023-03-01T12:49:14;6.70;99.90
16825;DHT22;8529;48.108;-1.706;2023-03-01T12:51:47;6.70;99.90
16825;DHT22;8529;48.108;-1.706;2023-03-01T12:54:24;6.70;99.90
16825;DHT22;8529;48.108;-1.706;2023-03-01T12:56:53;6.80;99.90
16825;DHT22;8529;48.108;-1.706;2023-03-01T12:59:26;6.70;99.90
16825;DHT22;8529;48.108;-1.706;2023-03-01T13:02:02;6.80;99.90
16825;DHT22;8529;48.108;-1.706;2023-03-01T13:04:39;6.80;99.90
16825;DHT22;8529;48.108;-1.706;2023-03-01T13:07:18;6.80;99.90
16825;DHT22;8529;48.108;-1.706;2023-03-01T13:09:51;6.90;99.90
16825;DHT22;8529;48.108;-1.706;2023-03-01T13:12:43;6.90;99.90
16825;DHT22;8529;48.108;-1.706;2023-03-01T13:15:33;6.90;99.90
16825;DHT22;8529;48.108;-1.706;2023-03-01T13:18:02;6.80;99.90
16825;DHT22;8529;48.108;-1.706;2023-03-01T13:20:33;6.80;99.90
16825;DHT22;8529;48.108;-1.706;2023-03-01T13:23:13;6.80;99.90
16825;DHT22;8529;48.108;-1.706;2023-03-01T13:26:11;6.90;99.90
16825;DHT22;8529;48.108;-1.706;2023-03-01T13:28:48;6.90;99.90
16825;DHT22;8529;48.108;-1.706;2023-03-01T13:34:47;7.00;99.90
16825;DHT22;8529;48.108;-1.706;2023-03-01T13:37:23;7.00;99.90
16825;DHT22;8529;48.108;-1.706;2023-03-01T13:39:55;7.00;99.90
16825;DHT22;8529;48.108;-1.706;2023-03-01T13:42:41;7.10;99.90
16825;DHT22;8529;48.108;-1.706;2023-03-01T13:45:32;7.10;99.90
16825;DHT22;8529;48.108;-1.706;2023-03-01T13:48:03;7.10;99.90
16825;DHT22;8529;48.108;-1.706;2023-03-01T13:50:45;7.20;99.90
16825;DHT22;8529;48.108;-1.706;2023-03-01T13:53:17;7.20;99.90
16825;DHT22;8529;48.108;-1.706;2023-03-01T13:55:46;7.20;99.90
16825;DHT22;8529;48.108;-1.706;2023-03-01T13:58:19;7.20;99.90
16825;DHT22;8529;48.108;-1.706;2023-03-01T14:00:47;7.20;99.90
16825;DHT22;8529;48.108;-1.706;2023-03-01T14:03:16;7.20;99.90
16825;DHT22;8529;48.108;-1.706;2023-03-01T14:05:59;7.20;99.90
16825;DHT22;8529;48.108;-1.706;2023-03-01T14:08:27;7.20;99.90
16825;DHT22;8529;48.108;-1.706;2023-03-01T14:11:06;7.30;99.90
16825;DHT22;8529;48.108;-1.706;2023-03-01T14:13:52;7.30;99.90
16825;DHT22;8529;48.108;-1.706;2023-03-01T14:16:29;7.30;99.90
16825;DHT22;8529;48.108;-1.706;2023-03-01T14:19:12;7.30;99.90
16825;DHT22;8529;48.108;-1.706;2023-03-01T14:21:43;7.40;99.90
16825;DHT22;8529;48.108;-1.706;2023-03-01T14:24:17;7.40;99.90
16825;DHT22;8529;48.108;-1.706;2023-03-01T14:26:45;7.40;99.90
16825;DHT22;8529;48.108;-1.706;2023-03-01T14:29:24;7.40;99.90
16825;DHT22;8529;48.108;-1.706;2023-03-01T14:31:51;7.40;99.90
16825;DHT22;8529;48.108;-1.706;2023-03-01T14:34:20;7.40;99.90
16825;DHT22;8529;48.108;-1.706;2023-03-01T14:36:48;7.40;99.90
16825;DHT22;8529;48.108;-1.706;2023-03-01T14:39:19;7.40;99.90
16825;DHT22;8529;48.108;-1.706;2023-03-01T14:41:49;7.40;99.90
16825;DHT22;8529;48.108;-1.706;2023-03-01T14:44:21;7.40;99.90
16825;DHT22;8529;48.108;-1.706;2023-03-01T14:46:52;7.40;99.60
16825;DHT22;8529;48.108;-1.706;2023-03-01T14:49:22;7.40;99.50
16825;DHT22;8529;48.108;-1.706;2023-03-01T14:51:53;7.30;99.40
16825;DHT22;8529;48.108;-1.706;2023-03-01T14:54:24;7.30;99.90
16825;DHT22;8529;48.108;-1.706;2023-03-01T14:56:52;7.30;99.90
16825;DHT22;8529;48.108;-1.706;2023-03-01T14:59:21;7.30;99.90
16825;DHT22;8529;48.108;-1.706;2023-03-01T15:01:49;7.20;99.90
16825;DHT22;8529;48.108;-1.706;2023-03-01T15:04:18;7.10;99.90
16825;DHT22;8529;48.108;-1.706;2023-03-01T15:06:47;7.10;99.90
16825;DHT22;8529;48.108;-1.706;2023-03-01T15:09:16;7.20;99.90
16825;DHT22;8529;48.108;-1.706;2023-03-01T15:11:44;7.10;99.90
16825;DHT22;8529;48.108;-1.706;2023-03-01T15:14:28;7.10;99.90
16825;DHT22;8529;48.108;-1.706;2023-03-01T15:16:56;7.10;99.90
16825;DHT22;8529;48.108;-1.706;2023-03-01T15:19:26;7.00;99.90
16825;DHT22;8529;48.108;-1.706;2023-03-01T15:21:55;7.00;99.90
16825;DHT22;8529;48.108;-1.706;2023-03-01T15:24:25;7.00;99.90
16825;DHT22;8529;48.108;-1.706;2023-03-01T15:26:57;7.10;99.90
16825;DHT22;8529;48.108;-1.706;2023-03-01T15:29:28;7.10;99.90
16825;DHT22;8529;48.108;-1.706;2023-03-01T15:31:58;7.10;99.90
16825;DHT22;8529;48.108;-1.706;2023-03-01T15:34:28;7.20;99.90
16825;DHT22;8529;48.108;-1.706;2023-03-01T15:36:56;7.10;99.90
16825;DHT22;8529;48.108;-1.706;2023-03-01T15:39:34;7.10;99.90
16825;DHT22;8529;48.108;-1.706;2023-03-01T15:42:08;7.10;99.90
16825;DHT22;8529;48.108;-1.706;2023-03-01T15:44:37;7.10;99.90
16825;DHT22;8529;48.108;-1.706;2023-03-01T15:47:23;7.20;99.90
16825;DHT22;8529;48.108;-1.706;2023-03-01T15:49:52;7.20;99.90
16825;DHT22;8529;48.108;-1.706;2023-03-01T15:52:22;7.10;99.90
16825;DHT22;8529;48.108;-1.706;2023-03-01T15:54:56;7.20;99.90
16825;DHT22;8529;48.108;-1.706;2023-03-01T15:57:23;7.10;99.90
16825;DHT22;8529;48.108;-1.706;2023-03-01T15:59:50;7.10;99.90
16825;DHT22;8529;48.108;-1.706;2023-03-01T16:02:17;7.10;99.90
16825;DHT22;8529;48.108;-1.706;2023-03-01T16:04:46;7.10;99.90
16825;DHT22;8529;48.108;-1.706;2023-03-01T16:07:14;7.10;99.90
16825;DHT22;8529;48.108;-1.706;2023-03-01T16:09:41;7.10;99.90
16825;DHT22;8529;48.108;-1.706;2023-03-01T16:12:14;7.10;99.90
16825;DHT22;8529;48.108;-1.706;2023-03-01T16:14:41;7.10;99.90
16825;DHT22;8529;48.108;-1.706;2023-03-01T16:17:08;7.10;99.90
16825;DHT22;8529;48.108;-1.706;2023-03-01T16:19:36;7.10;99.90
16825;DHT22;8529;48.108;-1.706;2023-03-01T16:22:04;7.00;99.90